Time;durP1;ratioP1;P1;durP2;ratioP2;P2;SDS_P1;SDS_P2;PMS_P1;PMS_P2;Temp;Humidity;BMP_temperature;BMP_pressure;BME280_temperature;BME280_humidity;BME280_pressure;Samples;Min_cycle;Max_cycle;Signal;HPM_P1;HPM_P2
2021/05/19 00:00:18;;;;;;;6.97;5.45;;;;;;;10.89;100.00;101060.72;5117316;27;20039;-80
2021/05/19 00:02:44;;;;;;;6.43;4.95;;;;;;;10.90;100.00;101059.78;5125640;28;20035;-76
2021/05/19 00:05:11;;;;;;;7.13;4.93;;;;;;;10.91;100.00;101058.84;5100850;28;20032;-75
2021/05/19 00:07:36;;;;;;;11.70;5.85;;;;;;;10.91;99.46;101069.56;5111280;28;20168;-78
2021/05/19 00:10:04;;;;;;;8.05;5.15;;;;;;;10.86;99.52;101055.56;5124291;28;20102;-77
2021/05/19 00:12:29;;;;;;;7.15;4.90;;;;;;;10.87;99.65;101050.06;5106464;28;20027;-77
2021/05/19 00:14:54;;;;;;;8.55;5.03;;;;;;;10.92;99.49;101055.19;5105848;28;20404;-77
2021/05/19 00:17:20;;;;;;;7.22;4.97;;;;;;;10.82;100.00;101054.88;5120575;28;20311;-76
2021/05/19 00:19:45;;;;;;;8.65;4.93;;;;;;;10.79;100.00;101043.47;5120007;27;20027;-76
2021/05/19 00:22:11;;;;;;;9.18;4.88;;;;;;;10.81;100.00;101045.06;5100099;28;20035;-77
2021/05/19 00:24:36;;;;;;;8.43;4.50;;;;;;;10.83;100.00;101036.94;5105978;28;20103;-78
2021/05/19 00:27:02;;;;;;;6.25;4.68;;;;;;;10.84;100.00;101044.03;5113409;27;20038;-76
2021/05/19 00:29:27;;;;;;;5.85;4.25;;;;;;;10.84;100.00;101041.34;5104961;28;20089;-77
2021/05/19 00:31:54;;;;;;;7.95;5.07;;;;;;;10.85;100.00;101045.78;5099962;27;20478;-77
2021/05/19 00:34:20;;;;;;;6.30;5.38;;;;;;;10.84;100.00;101052.09;5109676;28;20028;-77
2021/05/19 00:36:45;;;;;;;5.72;4.10;;;;;;;10.78;100.00;101047.97;5092474;27;20031;-79
2021/05/19 00:39:12;;;;;;;6.72;4.95;;;;;;;10.75;100.00;101050.81;5093671;27;20023;-77
2021/05/19 00:41:41;;;;;;;6.80;5.03;;;;;;;10.74;100.00;101050.94;5106055;27;20357;-79
2021/05/19 00:44:13;;;;;;;8.52;5.53;;;;;;;10.70;100.00;101054.72;5111540;27;20387;-76
2021/05/19 00:46:43;;;;;;;8.10;4.78;;;;;;;10.65;100.00;101051.47;5124299;27;20522;-77
2021/05/19 00:49:09;;;;;;;8.70;4.75;;;;;;;10.63;100.00;101051.53;5106247;27;20035;-76
2021/05/19 00:51:35;;;;;;;8.45;4.93;;;;;;;10.61;100.00;101049.94;5116569;27;20027;-77
2021/05/19 00:54:01;;;;;;;11.25;5.72;;;;;;;10.60;100.00;101046.38;5126120;27;20027;-76
2021/05/19 00:56:27;;;;;;;12.75;5.07;;;;;;;10.59;100.00;101046.47;5127109;27;20495;-77
2021/05/19 00:58:56;;;;;;;9.68;5.97;;;;;;;10.57;100.00;101043.84;5112013;27;20030;-78
2021/05/19 01:01:22;;;;;;;8.55;5.35;;;;;;;10.55;100.00;101043.09;5129185;27;20049;-76
2021/05/19 01:03:58;;;;;;;8.77;5.13;;;;;;;10.53;100.00;101045.88;5099123;27;20444;-76
2021/05/19 01:06:56;;;;;;;7.80;5.35;;;;;;;10.48;100.00;101047.97;5108086;27;20027;-76
2021/05/19 01:09:35;;;;;;;10.55;5.88;;;;;;;10.47;100.00;101031.94;5110536;27;20030;-77
2021/05/19 01:12:12;;;;;;;9.52;5.35;;;;;;;10.49;100.00;101046.16;5109923;27;20055;-78
2021/05/19 01:14:38;;;;;;;9.85;5.18;;;;;;;10.43;100.00;101041.97;5124560;27;20071;-77
2021/05/19 01:17:04;;;;;;;10.65;5.68;;;;;;;10.41;100.00;101037.66;5108024;27;20035;-77
2021/05/19 01:19:31;;;;;;;9.75;5.40;;;;;;;10.38;100.00;101041.38;5094231;27;20022;-77
2021/05/19 01:22:04;;;;;;;11.85;6.18;;;;;;;10.46;100.00;101038.25;5112905;27;20054;-76
2021/05/19 01:24:30;;;;;;;9.25;5.40;;;;;;;10.36;100.00;101034.41;5109153;27;20027;-77
2021/05/19 01:26:56;;;;;;;14.52;6.38;;;;;;;10.31;100.00;101042.69;5128168;27;20062;-76
2021/05/19 01:29:22;;;;;;;12.85;5.45;;;;;;;10.29;100.00;101041.06;5127440;27;20499;-76
2021/05/19 01:31:48;;;;;;;8.88;6.05;;;;;;;10.28;100.00;101042.88;5124501;27;20212;-77
2021/05/19 01:34:13;;;;;;;9.60;6.70;;;;;;;10.30;100.00;101041.00;5109870;27;20033;-77
2021/05/19 01:36:39;;;;;;;13.55;7.30;;;;;;;10.30;100.00;101045.50;5105393;27;20023;-78
2021/05/19 01:39:07;;;;;;;10.73;6.30;;;;;;;10.26;100.00;101042.09;5105553;27;20032;-76
2021/05/19 01:41:33;;;;;;;14.63;6.47;;;;;;;10.24;100.00;101035.13;5122610;27;20483;-77
2021/05/19 01:44:07;;;;;;;9.05;6.20;;;;;;;10.28;100.00;101029.47;5118196;27;20164;-78
2021/05/19 01:46:41;;;;;;;8.73;5.53;;;;;;;10.22;100.00;101032.50;5131832;27;20091;-76
2021/05/19 01:49:08;;;;;;;9.45;6.13;;;;;;;10.22;100.00;101040.56;5084668;28;20031;-77
2021/05/19 01:51:36;;;;;;;6.90;5.45;;;;;;;10.20;100.00;101038.91;5107835;27;20035;-76
2021/05/19 01:54:04;;;;;;;6.95;4.93;;;;;;;10.18;100.00;101041.69;5109429;27;20493;-76
2021/05/19 01:56:29;;;;;;;10.52;5.70;;;;;;;10.15;100.00;101041.81;5099533;27;20053;-77
2021/05/19 01:58:59;;;;;;;13.85;5.90;;;;;;;10.14;100.00;101040.97;5089823;27;20031;-77
2021/05/19 02:01:25;;;;;;;8.05;5.95;;;;;;;10.11;100.00;101041.16;5106079;27;20027;-76
2021/05/19 02:04:04;;;;;;;8.00;5.43;;;;;;;10.05;100.00;101029.91;5106041;27;20047;-77
2021/05/19 02:06:43;;;;;;;10.18;5.90;;;;;;;10.02;100.00;101038.13;5119781;27;20083;-76
2021/05/19 02:09:09;;;;;;;9.73;6.05;;;;;;;10.00;100.00;101037.31;5083144;28;20032;-77
2021/05/19 02:11:35;;;;;;;8.80;5.90;;;;;;;9.98;100.00;101047.28;5105280;27;20120;-77
2021/05/19 02:14:01;;;;;;;8.45;6.05;;;;;;;9.97;100.00;101049.09;5124242;27;20049;-76
2021/05/19 02:16:27;;;;;;;8.38;5.80;;;;;;;9.94;100.00;101043.03;5101493;27;20023;-77
2021/05/19 02:18:53;;;;;;;11.15;6.97;;;;;;;9.98;100.00;101044.59;5112729;27;20031;-77
2021/05/19 02:21:21;;;;;;;11.30;5.97;;;;;;;9.94;100.00;101049.25;5107195;27;20027;-77
2021/05/19 02:23:59;;;;;;;9.13;6.95;;;;;;;9.85;100.00;101049.81;5108032;27;20314;-76
2021/05/19 02:26:24;;;;;;;10.43;6.70;;;;;;;9.82;100.00;101039.22;5121417;27;20038;-78
2021/05/19 02:28:50;;;;;;;11.85;7.55;;;;;;;9.84;100.00;101047.19;5089417;27;20032;-77
2021/05/19 02:31:16;;;;;;;10.48;7.68;;;;;;;9.79;100.00;101044.78;5123428;27;20431;-77
2021/05/19 02:33:41;;;;;;;10.77;7.88;;;;;;;9.79;100.00;101044.78;5122298;27;20545;-77
2021/05/19 02:36:07;;;;;;;12.60;9.45;;;;;;;9.77;100.00;101049.34;5117020;27;20039;-76
2021/05/19 02:38:35;;;;;;;12.13;10.07;;;;;;;9.75;100.00;101044.06;5110682;27;20022;-77
2021/05/19 02:41:02;;;;;;;14.38;9.35;;;;;;;9.74;100.00;101039.69;5108823;27;20027;-76
2021/05/19 02:54:50;;;;;;;15.23;10.73;;;;;;;9.67;100.00;101040.97;5114869;27;20102;-77
2021/05/19 02:57:15;;;;;;;15.65;11.20;;;;;;;9.65;100.00;101042.84;5107649;27;20027;-78
2021/05/19 02:59:41;;;;;;;14.55;10.60;;;;;;;9.66;100.00;101044.59;5107091;28;20802;-77
2021/05/19 03:02:07;;;;;;;15.60;10.57;;;;;;;9.66;100.00;101044.59;5127158;27;20084;-76
2021/05/19 03:04:32;;;;;;;19.23;11.75;;;;;;;9.67;100.00;101040.09;5117543;27;20064;-76
2021/05/19 03:06:58;;;;;;;17.27;11.80;;;;;;;9.65;100.00;101037.50;5103838;27;20042;-76
2021/05/19 03:09:23;;;;;;;15.90;10.85;;;;;;;9.64;100.00;101043.81;5129644;27;20030;-78
2021/05/19 03:11:48;;;;;;;17.50;11.27;;;;;;;9.63;100.00;101049.25;5125815;27;20063;-76
2021/05/19 03:14:14;;;;;;;15.95;11.10;;;;;;;9.62;100.00;101043.03;5128594;27;20035;-76
2021/05/19 03:16:40;;;;;;;13.88;10.50;;;;;;;9.61;100.00;101052.03;5102509;27;20298;-77
2021/05/19 03:19:07;;;;;;;18.98;12.93;;;;;;;9.60;100.00;101049.44;5104963;27;20066;-78
2021/05/19 03:21:33;;;;;;;19.30;12.07;;;;;;;9.58;100.00;101048.63;5107013;28;20020;-76
2021/05/19 03:23:58;;;;;;;21.38;12.50;;;;;;;9.56;100.00;101048.75;5097547;28;20027;-77
2021/05/19 03:26:24;;;;;;;17.65;12.40;;;;;;;9.50;100.00;101051.75;5101218;28;20106;-76
2021/05/19 03:28:49;;;;;;;16.00;11.88;;;;;;;9.47;100.00;101054.59;5106640;27;20035;-76
2021/05/19 03:31:15;;;;;;;23.23;13.82;;;;;;;9.47;100.00;101054.59;5101422;28;20122;-75
2021/05/19 03:33:41;;;;;;;20.52;14.38;;;;;;;9.44;100.00;101056.59;5122559;28;20655;-76
2021/05/19 03:36:07;;;;;;;21.65;14.85;;;;;;;9.41;100.00;101056.72;5099036;28;20431;-78
2021/05/19 03:38:34;;;;;;;24.88;16.30;;;;;;;9.39;100.00;101055.94;5101309;27;20446;-78
2021/05/19 03:41:01;;;;;;;19.13;14.30;;;;;;;9.38;100.00;101057.75;5125370;27;20031;-76
2021/05/19 03:43:26;;;;;;;21.58;15.15;;;;;;;9.38;100.00;101059.59;5104169;28;20031;-76
2021/05/19 03:45:52;;;;;;;25.33;16.63;;;;;;;9.37;100.00;101057.84;5123899;27;20026;-75
2021/05/19 03:48:18;;;;;;;25.38;15.85;;;;;;;9.34;100.00;101061.56;5105670;28;20038;-75
2021/05/19 03:50:44;;;;;;;27.63;16.88;;;;;;;9.32;100.00;101060.75;5093713;28;20035;-77
2021/05/19 03:53:10;;;;;;;24.52;16.98;;;;;;;9.31;100.00;101061.72;5112038;28;20475;-75
2021/05/19 03:55:36;;;;;;;23.38;16.25;;;;;;;9.30;100.00;101063.53;5122711;28;20075;-77
2021/05/19 03:58:02;;;;;;;30.63;18.85;;;;;;;9.27;100.00;101062.81;5125865;27;20986;-78
2021/05/19 04:00:30;;;;;;;25.60;17.20;;;;;;;9.27;100.00;101060.16;5107912;28;20503;-76
2021/05/19 04:02:57;;;;;;;27.02;18.75;;;;;;;9.26;100.00;101064.63;5112340;27;20746;-77
2021/05/19 04:05:25;;;;;;;24.80;18.90;;;;;;;9.27;100.00;101062.81;5124233;27;20043;-76
2021/05/19 04:07:55;;;;;;;29.33;19.00;;;;;;;9.28;100.00;101059.19;5096001;27;20031;-76
2021/05/19 04:10:22;;;;;;;26.40;17.52;;;;;;;9.31;100.00;101054.56;5122485;27;20066;-76
2021/05/19 04:12:49;;;;;;;26.55;17.77;;;;;;;9.36;100.00;101064.16;5126077;27;20023;-77
2021/05/19 04:15:18;;;;;;;25.77;18.20;;;;;;;9.37;100.00;101061.41;5132049;27;20495;-77
2021/05/19 04:17:44;;;;;;;26.45;16.85;;;;;;;9.42;100.00;101062.03;5111493;27;20103;-77
2021/05/19 04:20:10;;;;;;;24.90;17.15;;;;;;;9.48;100.00;101075.09;5093510;28;20442;-76
2021/05/19 04:22:36;;;;;;;26.98;17.35;;;;;;;9.55;100.00;101073.81;5101316;27;20447;-77
2021/05/19 04:25:02;;;;;;;27.63;18.02;;;;;;;9.52;100.00;101070.41;5128953;27;20384;-77
2021/05/19 04:27:28;;;;;;;31.08;19.35;;;;;;;9.55;100.00;101076.50;5113259;27;20035;-76
2021/05/19 04:29:53;;;;;;;27.60;17.63;;;;;;;9.58;100.00;101078.13;5130211;27;20436;-77
2021/05/19 04:32:19;;;;;;;25.80;16.67;;;;;;;9.60;100.00;101078.91;5126545;27;20031;-77
2021/05/19 04:34:44;;;;;;;29.45;17.27;;;;;;;9.69;100.00;101081.94;5098359;27;20502;-76
2021/05/19 04:37:10;;;;;;;31.70;17.23;;;;;;;9.73;100.00;101074.59;5113438;27;20028;-78
2021/05/19 04:39:36;;;;;;;26.63;16.50;;;;;;;9.70;100.00;101083.66;5109141;28;20516;-77
2021/05/19 04:42:02;;;;;;;26.15;17.15;;;;;;;9.87;100.00;101080.09;5107457;27;20047;-76
2021/05/19 04:44:27;;;;;;;29.23;16.85;;;;;;;9.81;100.00;101084.91;5126241;27;20027;-78
2021/05/19 04:46:53;;;;;;;27.20;16.63;;;;;;;9.84;100.00;101079.38;5122235;27;20092;-76
2021/05/19 04:49:18;;;;;;;24.95;15.55;;;;;;;9.84;100.00;101080.22;5125768;27;20063;-77
2021/05/19 04:51:44;;;;;;;25.92;15.88;;;;;;;9.82;100.00;101086.63;5127177;27;20050;-77
2021/05/19 04:54:09;;;;;;;26.85;15.95;;;;;;;9.87;100.00;101089.94;5113285;27;20065;-75
2021/05/19 04:56:36;;;;;;;28.42;17.05;;;;;;;10.03;100.00;101096.16;5128697;27;20042;-75
2021/05/19 04:59:02;;;;;;;28.60;17.02;;;;;;;9.95;100.00;101098.41;5104707;27;20139;-77
2021/05/19 05:01:28;;;;;;;26.08;15.95;;;;;;;9.98;100.00;101100.94;5129938;27;20538;-75
2021/05/19 05:03:53;;;;;;;24.63;15.15;;;;;;;9.95;100.00;101098.41;5127375;27;20288;-76
2021/05/19 05:06:18;;;;;;;29.38;15.55;;;;;;;10.04;100.00;101097.91;5109398;27;20023;-78
2021/05/19 05:08:44;;;;;;;27.58;15.23;;;;;;;10.03;100.00;101101.53;5123562;27;20045;-76
2021/05/19 05:11:09;;;;;;;22.70;14.57;;;;;;;10.08;100.00;101104.81;5111974;27;20027;-78
2021/05/19 05:13:35;;;;;;;27.73;16.30;;;;;;;10.19;100.00;101107.78;5130433;27;21825;-76
2021/05/19 05:16:00;;;;;;;24.35;14.45;;;;;;;10.22;100.00;101102.25;5097454;28;20032;-78
2021/05/19 05:18:26;;;;;;;26.90;15.20;;;;;;;10.34;100.00;101106.06;5104418;28;20027;-78
2021/05/19 05:20:51;;;;;;;26.52;14.38;;;;;;;10.33;100.00;101105.19;5109257;27;20371;-77
2021/05/19 05:23:17;;;;;;;27.98;14.90;;;;;;;10.45;100.00;101109.84;5106296;27;20110;-79
2021/05/19 05:25:42;;;;;;;26.05;14.65;;;;;;;10.40;100.00;101103.88;5102163;28;20475;-77
2021/05/19 05:28:08;;;;;;;31.63;14.77;;;;;;;10.41;100.00;101097.56;5125024;27;21524;-77
2021/05/19 05:30:33;;;;;;;23.25;13.30;;;;;;;10.46;100.00;101100.84;5125417;27;20402;-77
2021/05/19 05:32:59;;;;;;;26.67;13.98;;;;;;;10.52;100.00;101102.31;5106264;27;20110;-77
2021/05/19 05:35:24;;;;;;;22.20;13.82;;;;;;;10.55;100.00;101104.84;5104871;28;20044;-78
2021/05/19 05:37:50;;;;;;;23.98;12.60;;;;;;;10.62;100.00;101100.81;5118694;27;20035;-77
2021/05/19 05:40:15;;;;;;;25.17;13.27;;;;;;;10.70;100.00;101097.69;5115251;27;20081;-78
2021/05/19 05:42:42;;;;;;;31.58;13.90;;;;;;;10.83;100.00;101101.38;5119551;27;20027;-77
2021/05/19 05:45:08;;;;;;;27.13;12.15;;;;;;;10.99;100.00;101110.25;5130334;27;20031;-77
2021/05/19 05:47:34;;;;;;;24.25;11.60;;;;;;;11.28;100.00;101098.63;5108576;27;20464;-77
2021/05/19 05:50:03;;;;;;;25.08;10.43;;;;;;;11.62;99.29;101116.22;5127625;27;20031;-78
2021/05/19 05:52:28;;;;;;;24.65;12.23;;;;;;;11.96;96.11;101109.63;5124480;27;20697;-77
2021/05/19 05:54:54;;;;;;;23.83;11.52;;;;;;;12.24;94.45;101107.81;5122027;27;20057;-76
2021/05/19 05:57:19;;;;;;;20.98;10.93;;;;;;;12.34;92.95;101114.34;5128568;27;20118;-77
2021/05/19 05:59:45;;;;;;;18.55;9.52;;;;;;;12.63;91.00;101115.97;5109756;27;20498;-76
2021/05/19 06:02:10;;;;;;;26.83;9.38;;;;;;;12.77;89.37;101107.84;5127134;27;20027;-75
2021/05/19 06:04:36;;;;;;;17.38;9.02;;;;;;;12.94;88.55;101110.25;5111322;27;20026;-77
2021/05/19 06:07:02;;;;;;;21.23;9.63;;;;;;;13.12;88.52;101107.28;5129794;27;20051;-77
2021/05/19 06:09:27;;;;;;;17.23;8.35;;;;;;;13.17;88.20;101107.84;5109519;27;20037;-77
2021/05/19 06:11:53;;;;;;;18.77;8.05;;;;;;;13.40;85.79;101107.09;5091053;27;20034;-77
2021/05/19 06:14:20;;;;;;;20.42;8.55;;;;;;;13.72;85.03;101112.94;5128879;27;20042;-77
2021/05/19 06:16:45;;;;;;;22.05;8.80;;;;;;;14.00;82.67;101111.84;5122670;27;20035;-76
2021/05/19 06:19:11;;;;;;;20.83;8.82;;;;;;;14.31;80.24;101122.13;5121901;27;20015;-77
2021/05/19 06:21:36;;;;;;;14.95;6.93;;;;;;;14.75;81.19;101118.00;5107362;27;20027;-76
2021/05/19 06:24:03;;;;;;;19.40;7.15;;;;;;;14.79;78.54;101127.59;5108560;27;20061;-77
2021/05/19 06:26:28;;;;;;;15.65;7.05;;;;;;;14.64;79.12;101128.72;5129241;27;20027;-77
2021/05/19 06:28:53;;;;;;;19.35;6.95;;;;;;;14.49;79.98;101130.75;5111268;27;20030;-78
2021/05/19 06:31:19;;;;;;;17.27;7.57;;;;;;;14.43;81.06;101126.66;5108494;27;20080;-77
2021/05/19 06:33:44;;;;;;;21.92;7.28;;;;;;;14.31;79.96;101132.94;5126673;27;20019;-75
2021/05/19 06:36:10;;;;;;;13.30;7.03;;;;;;;14.25;80.75;101127.97;5110585;27;20420;-78
2021/05/19 06:38:35;;;;;;;12.73;6.05;;;;;;;14.54;80.48;101128.56;5105612;28;20114;-79
2021/05/19 06:41:00;;;;;;;29.65;8.00;;;;;;;14.63;80.32;101127.03;5120237;27;20497;-76
2021/05/19 06:43:26;;;;;;;13.85;5.75;;;;;;;14.92;78.52;101122.97;5100477;28;20027;-77
2021/05/19 06:45:52;;;;;;;13.57;4.80;;;;;;;15.11;77.13;101123.31;5128189;27;20102;-77
2021/05/19 06:48:17;;;;;;;17.58;5.97;;;;;;;15.40;77.37;101112.91;5127729;27;20039;-78
2021/05/19 06:50:45;;;;;;;18.48;4.97;;;;;;;15.86;74.70;101122.88;5120885;27;20072;-76
2021/05/19 06:53:10;;;;;;;15.05;5.32;;;;;;;16.19;72.19;101126.41;5110709;27;20042;-76
2021/05/19 06:55:36;;;;;;;20.70;5.65;;;;;;;16.35;71.96;101127.88;5128921;27;20394;-80
2021/05/19 06:58:01;;;;;;;14.50;4.88;;;;;;;16.79;71.04;101130.47;5110359;27;20046;-78
2021/05/19 07:00:27;;;;;;;10.85;4.68;;;;;;;16.73;70.96;101133.72;5121222;27;20027;-76
2021/05/19 07:02:52;;;;;;;13.15;4.65;;;;;;;16.48;71.24;101139.41;5106348;27;20030;-76
2021/05/19 07:05:17;;;;;;;15.88;3.90;;;;;;;15.97;72.53;101137.25;5108515;27;20023;-82
2021/05/19 07:07:46;;;;;;;9.43;3.70;;;;;;;15.68;73.59;101141.41;5111330;27;20042;-75
2021/05/19 07:10:13;;;;;;;18.92;3.97;;;;;;;15.63;74.85;101140.91;5120781;27;20072;-78
2021/05/19 07:12:38;;;;;;;13.02;4.22;;;;;;;15.49;75.78;101143.81;5111610;27;20019;-77
2021/05/19 07:15:11;;;;;;;15.07;4.38;;;;;;;15.54;75.98;101128.13;5104615;27;20031;-80
2021/05/19 07:17:36;;;;;;;10.82;3.80;;;;;;;15.38;75.04;101134.69;5126719;27;20067;-78
2021/05/19 07:20:04;;;;;;;12.88;3.85;;;;;;;15.25;75.45;101139.31;5121863;27;20395;-78
2021/05/19 07:22:31;;;;;;;11.10;3.60;;;;;;;15.16;74.26;101142.72;5127773;27;20041;-77
2021/05/19 07:24:56;;;;;;;19.98;4.43;;;;;;;15.08;75.38;101142.44;5106134;27;20035;-79
2021/05/19 07:27:22;;;;;;;14.65;4.22;;;;;;;15.03;77.13;101143.78;5104488;27;20038;-76
2021/05/19 07:29:47;;;;;;;8.30;2.88;;;;;;;15.05;76.30;101142.69;5097948;28;20037;-78
2021/05/19 07:32:12;;;;;;;12.70;3.67;;;;;;;14.88;76.47;101148.50;5100643;28;20031;-77
2021/05/19 07:34:38;;;;;;;10.02;3.72;;;;;;;14.88;76.95;101149.38;5128187;27;20118;-79
2021/05/19 07:37:03;;;;;;;17.58;4.25;;;;;;;14.48;77.80;101154.19;5105071;27;20039;-77
2021/05/19 07:39:30;;;;;;;12.88;2.97;;;;;;;14.39;77.19;101157.56;5124718;27;20063;-77
2021/05/19 07:41:55;;;;;;;10.15;4.75;;;;;;;14.42;78.37;101151.94;5123748;27;20042;-83
2021/05/19 07:44:21;;;;;;;11.65;4.32;;;;;;;14.28;78.56;101162.84;5108078;28;20039;-78
2021/05/19 07:46:46;;;;;;;11.07;3.58;;;;;;;14.11;80.26;101157.81;5109282;27;20027;-77
2021/05/19 07:49:14;;;;;;;8.48;3.15;;;;;;;14.15;79.33;101164.69;5093473;27;20482;-77
2021/05/19 07:51:39;;;;;;;11.40;3.22;;;;;;;14.19;79.24;101160.81;5105255;27;20039;-76
2021/05/19 07:54:05;;;;;;;7.45;2.97;;;;;;;13.99;80.47;101158.69;5107818;27;20023;-76
2021/05/19 07:57:16;;;;;;;12.75;3.63;;;;;;;14.12;80.62;101159.53;5105365;27;20581;-78
2021/05/19 07:59:22;;;;;;;5.45;2.65;;;;;;;14.10;81.89;101166.88;5105184;27;20043;-77
2021/05/19 08:02:08;;;;;;;7.45;2.95;;;;;;;14.15;81.70;101175.50;5110854;27;20019;-77
2021/05/19 08:04:35;;;;;;;9.90;3.45;;;;;;;14.32;82.35;101163.50;5108500;27;20034;-78
2021/05/19 08:07:02;;;;;;;8.80;3.33;;;;;;;14.30;80.20;101173.53;5110109;27;20031;-76
2021/05/19 08:09:29;;;;;;;11.00;3.60;;;;;;;14.11;79.88;101174.88;5111363;27;20031;-78
2021/05/19 08:11:55;;;;;;;8.38;3.20;;;;;;;14.08;80.43;101175.06;5093872;27;20106;-76
2021/05/19 08:14:20;;;;;;;10.38;3.47;;;;;;;13.98;83.91;101162.34;5113138;27;20035;-76
2021/05/19 08:16:46;;;;;;;11.85;4.13;;;;;;;13.96;86.71;101173.25;5093941;27;20027;-78
2021/05/19 08:19:12;;;;;;;10.82;3.45;;;;;;;13.81;86.22;101174.34;5107408;27;20126;-77
2021/05/19 08:21:38;;;;;;;12.60;3.08;;;;;;;13.77;87.42;101176.38;5127267;27;20041;-78
2021/05/19 08:24:04;;;;;;;15.20;3.30;;;;;;;13.70;88.80;101164.28;5116484;27;20103;-78
2021/05/19 08:26:29;;;;;;;12.75;4.22;;;;;;;13.54;87.86;101166.34;5105962;27;20039;-76
2021/05/19 08:28:55;;;;;;;18.77;3.40;;;;;;;13.47;87.84;101164.19;5122833;27;20035;-78
2021/05/19 08:31:20;;;;;;;16.48;3.85;;;;;;;13.63;89.64;101163.03;5108770;27;20342;-76
2021/05/19 08:33:46;;;;;;;12.23;3.28;;;;;;;13.69;88.58;101162.59;5107451;27;20464;-77
2021/05/19 08:36:13;;;;;;;9.20;2.97;;;;;;;13.65;88.88;101166.47;5107228;27;20367;-77
2021/05/19 08:38:38;;;;;;;11.45;3.30;;;;;;;13.75;88.27;101167.56;5102695;27;20027;-78
2021/05/19 08:41:06;;;;;;;10.15;3.85;;;;;;;13.76;88.05;101163.88;5109737;27;20031;-77
2021/05/19 08:43:31;;;;;;;15.43;3.72;;;;;;;13.85;87.54;101161.50;5123456;27;20515;-78
2021/05/19 08:45:57;;;;;;;9.50;3.78;;;;;;;13.96;86.93;101159.75;5104108;27;20117;-77
2021/05/19 08:48:24;;;;;;;9.63;3.58;;;;;;;14.18;87.90;101154.56;5110118;27;20039;-76
2021/05/19 08:50:50;;;;;;;18.45;3.15;;;;;;;14.38;86.50;101155.81;5092064;27;20018;-80
2021/05/19 08:53:16;;;;;;;10.75;2.83;;;;;;;14.57;84.71;101161.59;5104098;27;20035;-77
2021/05/19 08:55:41;;;;;;;11.63;3.45;;;;;;;14.49;84.12;101152.34;5103739;28;20040;-77
2021/05/19 08:58:07;;;;;;;10.55;3.17;;;;;;;14.50;83.81;101154.91;5121915;27;20027;-78
2021/05/19 09:00:34;;;;;;;8.23;2.80;;;;;;;14.61;82.56;101150.59;5103947;27;20383;-79
2021/05/19 09:03:10;;;;;;;7.50;2.13;;;;;;;14.83;82.18;101156.97;5114693;27;20039;-77
2021/05/19 09:05:40;;;;;;;8.68;2.90;;;;;;;15.00;81.65;101152.97;5089641;27;20041;-78
2021/05/19 09:08:16;;;;;;;11.00;4.28;;;;;;;15.37;81.40;101151.88;5119105;27;20030;-77
2021/05/19 09:10:58;;;;;;;8.75;2.90;;;;;;;15.57;78.38;101142.25;5129052;27;20462;-78
2021/05/19 09:13:41;;;;;;;10.15;2.60;;;;;;;15.53;78.69;101145.31;5127517;27;20568;-77
2021/05/19 09:16:07;;;;;;;11.00;1.85;;;;;;;15.57;74.75;101144.09;5108722;27;20027;-78
2021/05/19 09:18:56;;;;;;;5.45;2.30;;;;;;;15.57;77.06;101131.44;5122286;27;20023;-78
2021/05/19 09:21:44;;;;;;;14.35;2.83;;;;;;;15.81;76.43;101133.16;5127207;27;20038;-78
2021/05/19 09:24:13;;;;;;;10.82;2.33;;;;;;;16.02;75.84;101132.31;5104801;27;20070;-77
2021/05/19 09:26:57;;;;;;;8.60;2.05;;;;;;;16.12;72.59;101136.00;5092681;27;20429;-76
2021/05/19 09:29:32;;;;;;;6.45;2.75;;;;;;;16.14;72.27;101142.16;5108822;27;20037;-80
2021/05/19 09:32:07;;;;;;;9.82;3.30;;;;;;;16.08;74.30;101136.38;5103597;27;20039;-79
2021/05/19 09:34:38;;;;;;;8.57;2.40;;;;;;;16.00;72.27;101133.44;5126787;27;20095;-78
2021/05/19 09:37:26;;;;;;;8.05;2.20;;;;;;;16.82;71.32;101132.94;5124276;27;20032;-78
2021/05/19 09:39:56;;;;;;;8.02;2.20;;;;;;;17.67;68.54;101136.47;5123909;27;20110;-79
2021/05/19 09:42:40;;;;;;;9.38;2.17;;;;;;;17.57;67.75;101132.81;5106010;27;20051;-79
2021/05/19 09:45:31;;;;;;;5.07;2.28;;;;;;;17.47;66.79;101134.59;5106483;27;20027;-79
2021/05/19 09:47:58;;;;;;;8.43;2.40;;;;;;;17.47;66.21;101129.16;5101064;27;20039;-78
2021/05/19 09:50:45;;;;;;;8.63;2.13;;;;;;;17.34;66.81;101117.69;5124302;27;20422;-80
2021/05/19 09:53:16;;;;;;;7.05;2.13;;;;;;;17.56;67.51;101128.38;5106185;27;20043;-79
2021/05/19 09:55:50;;;;;;;7.13;1.80;;;;;;;18.07;65.38;101128.41;5107230;27;20041;-80
2021/05/19 09:58:29;;;;;;;16.73;2.63;;;;;;;18.17;61.87;101117.56;5122644;27;20050;-79
2021/05/19 10:00:55;;;;;;;8.60;2.15;;;;;;;18.63;61.51;101127.03;5123618;27;20023;-80
2021/05/19 10:03:20;;;;;;;6.68;1.52;;;;;;;19.06;63.63;101124.78;5107321;27;20526;-80
2021/05/19 10:05:51;;;;;;;8.45;2.17;;;;;;;19.14;60.60;101122.16;5104596;27;20049;-78
2021/05/19 10:08:17;;;;;;;4.95;1.80;;;;;;;19.36;60.69;101124.59;5103600;27;20487;-79
2021/05/19 10:10:42;;;;;;;10.82;1.92;;;;;;;19.09;58.99;101127.19;5103258;27;20072;-79
2021/05/19 10:13:08;;;;;;;11.30;2.55;;;;;;;18.42;59.18;101122.50;5088629;27;20113;-79
2021/05/19 10:15:35;;;;;;;4.55;1.75;;;;;;;18.01;61.85;101125.38;5124295;27;20036;-79
2021/05/19 10:18:14;;;;;;;8.35;1.90;;;;;;;18.51;60.02;101118.97;5107043;27;20043;-79
2021/05/19 10:20:43;;;;;;;7.05;1.75;;;;;;;18.79;59.83;101119.16;5121591;27;20548;-77
2021/05/19 10:23:11;;;;;;;4.07;2.13;;;;;;;18.64;60.10;101117.88;5106597;27;20027;-80
2021/05/19 10:25:39;;;;;;;7.15;2.92;;;;;;;18.58;59.98;101105.66;5108849;27;20035;-80
2021/05/19 10:28:08;;;;;;;12.93;2.22;;;;;;;18.44;59.00;101109.63;5124028;27;20032;-78
2021/05/19 10:30:45;;;;;;;3.97;1.50;;;;;;;18.23;60.95;101100.69;5094360;27;20038;-78
2021/05/19 10:33:26;;;;;;;5.53;1.55;;;;;;;18.66;58.70;101104.97;5120814;27;20039;-78
2021/05/19 10:35:52;;;;;;;5.68;1.30;;;;;;;19.17;59.37;101091.09;5104644;27;20035;-78
2021/05/19 10:38:22;;;;;;;6.88;1.55;;;;;;;19.32;56.12;101092.34;5091067;27;20593;-77
2021/05/19 10:40:53;;;;;;;9.02;1.80;;;;;;;19.63;57.11;101084.84;5122343;27;20114;-78
2021/05/19 10:43:19;;;;;;;5.20;1.67;;;;;;;19.72;56.64;101079.41;5108066;27;20054;-78
2021/05/19 10:45:51;;;;;;;5.03;1.48;;;;;;;19.45;55.11;101083.88;5123402;27;20031;-78
2021/05/19 10:48:30;;;;;;;5.70;1.67;;;;;;;19.21;56.36;101081.63;5125078;27;20031;-78
2021/05/19 10:51:03;;;;;;;5.28;1.15;;;;;;;18.78;56.47;101084.81;5124333;27;20035;-77
2021/05/19 10:59:16;;;;;;;7.73;1.60;;;;;;;17.29;60.78;101099.06;5118461;27;20479;-77
2021/05/19 11:01:43;;;;;;;14.43;1.90;;;;;;;16.74;65.85;101110.16;5104195;27;20277;-78
2021/05/19 11:04:13;;;;;;;14.98;2.65;;;;;;;15.75;74.80;101113.72;5092289;27;20089;-78
2021/05/19 11:06:57;;;;;;;10.40;1.10;;;;;;;15.50;79.60;101113.03;5126596;27;20020;-78
2021/05/19 11:09:25;;;;;;;12.52;1.20;;;;;;;15.37;81.76;101108.59;5130827;27;20031;-77
2021/05/19 11:11:51;;;;;;;7.32;1.10;;;;;;;15.46;83.77;101103.47;5129749;27;20870;-77
2021/05/19 11:14:44;;;;;;;7.70;1.08;;;;;;;15.93;84.66;101095.16;5111217;27;20019;-77
2021/05/19 11:17:21;;;;;;;9.77;2.45;;;;;;;16.55;89.33;101102.69;5092481;27;20158;-77
2021/05/19 11:19:47;;;;;;;4.05;0.90;;;;;;;17.13;85.64;101097.81;5110155;27;20097;-77
2021/05/19 11:22:15;;;;;;;6.45;1.60;;;;;;;17.40;84.76;101100.88;5109316;28;20493;-77
2021/05/19 11:24:56;;;;;;;3.60;0.73;;;;;;;17.59;81.94;101090.09;5123779;27;20031;-77
2021/05/19 11:27:30;;;;;;;8.15;0.90;;;;;;;17.66;79.85;101096.75;5105545;28;20023;-77
2021/05/19 11:29:56;;;;;;;4.05;0.60;;;;;;;17.24;74.89;101089.59;5108515;27;20042;-77
2021/05/19 11:32:33;;;;;;;2.33;0.57;;;;;;;16.94;75.66;101088.53;5127722;28;20031;-77
2021/05/19 11:35:19;;;;;;;1.88;0.60;;;;;;;17.24;74.36;101085.03;5120031;27;20039;-78
2021/05/19 11:37:59;;;;;;;2.13;0.50;;;;;;;17.03;76.71;101091.47;5109564;28;20024;-77